Time,TemperatureF,DewpointF,PressureIn,WindDirection,WindDirectionDegrees,WindSpeedMPH,WindSpeedGustMPH,Humidity,HourlyPrecipIn,Conditions,Clouds,dailyrainin,SoftwareType,DateUTC
2013-05-26 00:03:00,72.9,70.0,29.98,SSE,156,6.0,-999.0,90,-99.99,,,0.00,weatherlink.com 1.10,2013-05-26 05:03:00,
2013-05-26 00:18:00,73.1,70.0,29.98,SSE,155,4.0,-999.0,89,-99.99,,,0.00,weatherlink.com 1.10,2013-05-26 05:18:00,
2013-05-26 00:34:00,73.1,70.0,29.98,SSE,153,4.0,-999.0,90,-99.99,,,0.00,weatherlink.com 1.10,2013-05-26 05:34:00,
2013-05-26 00:49:00,73.0,70.0,29.98,SSE,167,5.0,-999.0,90,-99.99,,,0.00,weatherlink.com 1.10,2013-05-26 05:49:00,
2013-05-26 01:04:00,72.6,70.0,29.97,SSE,150,5.0,-999.0,91,-99.99,,,0.00,weatherlink.com 1.10,2013-05-26 06:04:00,
2013-05-26 01:19:00,72.4,70.0,29.97,SSE,155,1.0,-999.0,91,-99.99,,,0.00,weatherlink.com 1.10,2013-05-26 06:19:00,
2013-05-26 01:34:00,72.3,70.0,29.96,SSE,158,4.0,-999.0,91,-99.99,,,0.00,weatherlink.com 1.10,2013-05-26 06:34:00,
2013-05-26 01:49:00,72.2,70.0,29.96,SSE,161,6.0,-999.0,92,-99.99,,,0.00,weatherlink.com 1.10,2013-05-26 06:49:00,
2013-05-26 02:04:00,72.2,70.0,29.95,SSE,165,7.0,-999.0,92,-99.99,,,0.00,weatherlink.com 1.10,2013-05-26 07:04:00,
2013-05-26 02:19:00,72.2,70.0,29.95,SSE,165,5.0,-999.0,92,-99.99,,,0.00,weatherlink.com 1.10,2013-05-26 07:19:00,
2013-05-26 02:34:00,72.4,70.0,29.93,SSE,163,4.0,-999.0,91,-99.99,,,0.00,weatherlink.com 1.10,2013-05-26 07:34:00,
2013-05-26 02:49:00,72.5,70.0,29.94,SSE,161,7.0,-999.0,91,-99.99,,,0.00,weatherlink.com 1.10,2013-05-26 07:49:00,
2013-05-26 03:04:00,72.6,70.0,29.94,SSE,158,1.0,-999.0,91,-99.99,,,0.00,weatherlink.com 1.10,2013-05-26 08:04:00,
2013-05-26 03:19:00,72.6,70.0,29.95,South,176,4.0,-999.0,91,-99.99,,,0.00,weatherlink.com 1.10,2013-05-26 08:19:00,
2013-05-26 03:34:00,72.5,70.0,29.95,South,177,6.0,-999.0,91,-99.99,,,0.00,weatherlink.com 1.10,2013-05-26 08:34:00,
2013-05-26 03:49:00,72.7,70.0,29.95,South,174,9.0,-999.0,91,-99.99,,,0.00,weatherlink.com 1.10,2013-05-26 08:49:00,
2013-05-26 04:04:00,72.9,70.0,29.95,South,180,7.0,-999.0,90,-99.99,,,0.00,weatherlink.com 1.10,2013-05-26 09:04:00,
2013-05-26 04:19:00,72.9,70.0,29.95,South,186,6.0,-999.0,90,-99.99,,,0.00,weatherlink.com 1.10,2013-05-26 09:19:00,
2013-05-26 04:34:00,72.8,70.0,29.94,South,169,9.0,-999.0,90,-99.99,,,0.00,weatherlink.com 1.10,2013-05-26 09:34:00,
2013-05-26 04:49:00,72.6,70.0,29.93,SSE,164,4.0,-999.0,91,-99.99,,,0.00,weatherlink.com 1.10,2013-05-26 09:49:00,
2013-05-26 05:04:00,72.4,70.0,29.93,South,174,7.0,-999.0,91,-99.99,,,0.00,weatherlink.com 1.10,2013-05-26 10:04:00,
2013-05-26 05:19:00,72.3,70.0,29.93,South,175,8.0,-999.0,91,-99.99,,,0.00,weatherlink.com 1.10,2013-05-26 10:19:00,
2013-05-26 05:34:00,72.2,70.0,29.92,South,178,12.0,-999.0,91,-99.99,,,0.00,weatherlink.com 1.10,2013-05-26 10:34:00,
2013-05-26 05:49:00,72.0,69.0,29.93,SSE,153,4.0,-999.0,91,-99.99,,,0.00,weatherlink.com 1.10,2013-05-26 10:49:00,
2013-05-26 06:04:00,71.8,69.0,29.93,SSE,161,5.0,-999.0,92,-99.99,,,0.00,weatherlink.com 1.10,2013-05-26 11:04:00,
2013-05-26 06:19:00,72.0,70.0,29.93,South,190,5.0,-999.0,92,-99.99,,,0.00,weatherlink.com 1.10,2013-05-26 11:19:00,
2013-05-26 06:34:00,72.2,70.0,29.94,SSE,167,5.0,-999.0,92,-99.99,,,0.00,weatherlink.com 1.10,2013-05-26 11:34:00,
2013-05-26 06:49:00,72.5,70.0,29.94,SSE,161,5.0,-999.0,91,-99.99,,,0.00,weatherlink.com 1.10,2013-05-26 11:49:00,
2013-05-26 07:04:00,72.9,70.0,29.95,South,178,12.0,-999.0,90,-99.99,,,0.00,weatherlink.com 1.10,2013-05-26 12:04:00,
2013-05-26 07:19:00,73.0,70.0,29.95,SSE,151,15.0,-999.0,90,-99.99,,,0.00,weatherlink.com 1.10,2013-05-26 12:19:00,
2013-05-26 07:34:00,73.2,70.0,29.95,SSE,149,10.0,-999.0,90,-99.99,,,0.00,weatherlink.com 1.10,2013-05-26 12:34:00,
2013-05-26 07:49:00,73.3,70.0,29.95,SSE,161,11.0,-999.0,90,-99.99,,,0.00,weatherlink.com 1.10,2013-05-26 12:49:00,
2013-05-26 08:04:00,73.5,70.0,29.95,SSE,163,8.0,-999.0,89,-99.99,,,0.00,weatherlink.com 1.10,2013-05-26 13:04:00,
2013-05-26 08:19:00,73.8,70.0,29.95,South,172,9.0,-999.0,89,-99.99,,,0.00,weatherlink.com 1.10,2013-05-26 13:19:00,
2013-05-26 08:33:00,73.9,71.0,29.95,South,172,9.0,-999.0,89,-99.99,,,0.00,weatherlink.com 1.10,2013-05-26 13:33:00,
2013-05-26 08:49:00,74.2,71.0,29.95,SE,141,14.0,-999.0,88,-99.99,,,0.00,weatherlink.com 1.10,2013-05-26 13:49:00,
2013-05-26 09:04:00,74.9,71.0,29.96,SSE,163,5.0,-999.0,87,-99.99,,,0.00,weatherlink.com 1.10,2013-05-26 14:04:00,
2013-05-26 09:19:00,74.9,71.0,29.97,SSW,196,1.0,-999.0,86,-99.99,,,0.00,weatherlink.com 1.10,2013-05-26 14:19:00,
2013-05-26 09:34:00,75.4,70.0,29.97,South,180,14.0,-999.0,84,-99.99,,,0.00,weatherlink.com 1.10,2013-05-26 14:34:00,
2013-05-26 09:49:00,75.6,71.0,29.96,South,189,15.0,-999.0,84,-99.99,,,0.00,weatherlink.com 1.10,2013-05-26 14:49:00,
2013-05-26 10:04:00,76.1,70.0,29.97,South,183,7.0,-999.0,82,-99.99,,,0.00,weatherlink.com 1.10,2013-05-26 15:04:00,
2013-05-26 10:22:00,77.6,71.0,29.96,South,184,6.0,-999.0,80,-99.99,,,0.00,weatherlink.com 1.10,2013-05-26 15:22:00,
2013-05-26 10:34:00,77.8,70.0,29.96,South,184,8.0,-999.0,77,-99.99,,,0.00,weatherlink.com 1.10,2013-05-26 15:34:00,
2013-05-26 10:49:00,78.1,70.0,29.96,SSE,155,9.0,-999.0,77,-99.99,,,0.00,weatherlink.com 1.10,2013-05-26 15:49:00,
2013-05-26 11:04:00,78.7,71.0,29.95,South,184,13.0,-999.0,76,-99.99,,,0.00,weatherlink.com 1.10,2013-05-26 16:04:00,
2013-05-26 11:19:00,79.5,71.0,29.95,SSE,165,8.0,-999.0,74,-99.99,,,0.00,weatherlink.com 1.10,2013-05-26 16:19:00,
2013-05-26 11:34:00,80.5,71.0,29.94,SSW,201,7.0,-999.0,73,-99.99,,,0.00,weatherlink.com 1.10,2013-05-26 16:34:00,
2013-05-26 11:49:00,80.7,71.0,29.94,SSE,161,10.0,-999.0,72,-99.99,,,0.00,weatherlink.com 1.10,2013-05-26 16:49:00,
2013-05-26 12:04:00,80.6,70.0,29.94,SSE,155,6.0,-999.0,71,-99.99,,,0.00,weatherlink.com 1.10,2013-05-26 17:04:00,
2013-05-26 12:19:00,80.3,71.0,29.94,SSE,158,6.0,-999.0,73,-99.99,,,0.00,weatherlink.com 1.10,2013-05-26 17:19:00,
2013-05-26 12:34:00,80.2,71.0,29.94,SSE,167,9.0,-999.0,73,-99.99,,,0.00,weatherlink.com 1.10,2013-05-26 17:34:00,
2013-05-26 12:49:00,81.4,71.0,29.94,SE,141,4.0,-999.0,71,-99.99,,,0.00,weatherlink.com 1.10,2013-05-26 17:49:00,
2013-05-26 13:04:00,82.5,71.0,29.94,South,185,5.0,-999.0,69,-99.99,,,0.00,weatherlink.com 1.10,2013-05-26 18:04:00,
2013-05-26 13:19:00,82.7,71.0,29.94,South,182,15.0,-999.0,68,-99.99,,,0.00,weatherlink.com 1.10,2013-05-26 18:19:00,
2013-05-26 13:34:00,83.4,72.0,29.93,ESE,117,6.0,-999.0,68,-99.99,,,0.00,weatherlink.com 1.10,2013-05-26 18:34:00,
2013-05-26 13:49:00,83.0,71.0,29.93,SSE,161,7.0,-999.0,67,-99.99,,,0.00,weatherlink.com 1.10,2013-05-26 18:49:00,
2013-05-26 14:04:00,82.6,71.0,29.92,SSE,159,7.0,-999.0,67,-99.99,,,0.00,weatherlink.com 1.10,2013-05-26 19:04:00,
2013-05-26 14:19:00,82.6,71.0,29.92,SSE,168,6.0,-999.0,67,-99.99,,,0.00,weatherlink.com 1.10,2013-05-26 19:19:00,
2013-05-26 14:34:00,82.8,71.0,29.91,SE,144,10.0,-999.0,68,-99.99,,,0.00,weatherlink.com 1.10,2013-05-26 19:34:00,
2013-05-26 14:49:00,83.2,71.0,29.91,SSW,193,9.0,-999.0,66,-99.99,,,0.00,weatherlink.com 1.10,2013-05-26 19:49:00,
2013-05-26 15:04:00,83.1,71.0,29.90,SSE,148,6.0,-999.0,67,-99.99,,,0.00,weatherlink.com 1.10,2013-05-26 20:04:00,
2013-05-26 15:19:00,84.0,72.0,29.89,SSE,168,8.0,-999.0,67,-99.99,,,0.00,weatherlink.com 1.10,2013-05-26 20:19:00,
2013-05-26 15:34:00,85.4,72.0,29.89,SSE,157,4.0,-999.0,64,-99.99,,,0.00,weatherlink.com 1.10,2013-05-26 20:34:00,
2013-05-26 15:49:00,85.5,71.0,29.88,SSE,153,10.0,-999.0,62,-99.99,,,0.00,weatherlink.com 1.10,2013-05-26 20:49:00,
2013-05-26 16:04:00,85.8,72.0,29.88,SSE,156,8.0,-999.0,64,-99.99,,,0.00,weatherlink.com 1.10,2013-05-26 21:04:00,
2013-05-26 16:19:00,85.6,72.0,29.88,SSE,148,11.0,-999.0,63,-99.99,,,0.00,weatherlink.com 1.10,2013-05-26 21:19:00,
2013-05-26 16:33:00,85.5,72.0,29.87,South,177,8.0,-999.0,64,-99.99,,,0.00,weatherlink.com 1.10,2013-05-26 21:33:00,
2013-05-26 16:49:00,85.0,72.0,29.86,SSE,159,10.0,-999.0,65,-99.99,,,0.00,weatherlink.com 1.10,2013-05-26 21:49:00,
2013-05-26 17:04:00,84.7,72.0,29.85,South,170,5.0,-999.0,66,-99.99,,,0.00,weatherlink.com 1.10,2013-05-26 22:04:00,
2013-05-26 17:19:00,85.6,72.0,29.85,SE,142,14.0,-999.0,63,-99.99,,,0.00,weatherlink.com 1.10,2013-05-26 22:19:00,
2013-05-26 17:34:00,85.5,72.0,29.84,South,180,8.0,-999.0,65,-99.99,,,0.00,weatherlink.com 1.10,2013-05-26 22:34:00,
2013-05-26 17:49:00,85.3,72.0,29.84,South,190,10.0,-999.0,64,-99.99,,,0.00,weatherlink.com 1.10,2013-05-26 22:49:00,
2013-05-26 18:04:00,84.9,72.0,29.83,South,186,6.0,-999.0,65,-99.99,,,0.00,weatherlink.com 1.10,2013-05-26 23:04:00,
2013-05-26 18:19:00,84.7,71.0,29.84,SSE,167,13.0,-999.0,64,-99.99,,,0.00,weatherlink.com 1.10,2013-05-26 23:19:00,
2013-05-26 18:34:00,84.7,72.0,29.82,South,177,6.0,-999.0,65,-99.99,,,0.00,weatherlink.com 1.10,2013-05-26 23:34:00,
2013-05-26 18:49:00,84.6,72.0,29.83,South,170,13.0,-999.0,66,-99.99,,,0.00,weatherlink.com 1.10,2013-05-26 23:49:00,
2013-05-26 19:04:00,84.5,71.0,29.82,South,169,10.0,-999.0,65,-99.99,,,0.00,weatherlink.com 1.10,2013-05-27 00:04:00,
2013-05-26 19:19:00,84.0,71.0,29.82,SSE,161,8.0,-999.0,66,-99.99,,,0.00,weatherlink.com 1.10,2013-05-27 00:19:00,
2013-05-26 19:34:00,83.6,72.0,29.82,SSE,157,8.0,-999.0,67,-99.99,,,0.00,weatherlink.com 1.10,2013-05-27 00:34:00,
2013-05-26 19:49:00,83.2,72.0,29.82,SSE,154,10.0,-999.0,68,-99.99,,,0.00,weatherlink.com 1.10,2013-05-27 00:49:00,
2013-05-26 20:04:00,82.6,71.0,29.82,South,191,12.0,-999.0,68,-99.99,,,0.00,weatherlink.com 1.10,2013-05-27 01:04:00,
2013-05-26 20:19:00,82.0,71.0,29.82,SSE,163,7.0,-999.0,70,-99.99,,,0.00,weatherlink.com 1.10,2013-05-27 01:19:00,
2013-05-26 20:34:00,81.5,71.0,29.82,SSE,159,7.0,-999.0,71,-99.99,,,0.00,weatherlink.com 1.10,2013-05-27 01:34:00,
2013-05-26 20:49:00,81.1,71.0,29.83,SSE,155,7.0,-999.0,71,-99.99,,,0.00,weatherlink.com 1.10,2013-05-27 01:49:00,
2013-05-26 21:04:00,80.6,71.0,29.83,SSE,157,7.0,-999.0,72,-99.99,,,0.00,weatherlink.com 1.10,2013-05-27 02:04:00,
2013-05-26 21:19:00,80.2,71.0,29.83,SSE,165,7.0,-999.0,73,-99.99,,,0.00,weatherlink.com 1.10,2013-05-27 02:19:00,
2013-05-26 21:34:00,79.8,71.0,29.84,SSE,165,4.0,-999.0,74,-99.99,,,0.00,weatherlink.com 1.10,2013-05-27 02:34:00,
2013-05-26 21:49:00,79.3,71.0,29.84,SSE,162,5.0,-999.0,75,-99.99,,,0.00,weatherlink.com 1.10,2013-05-27 02:49:00,
2013-05-26 22:04:00,78.9,70.0,29.86,SSE,163,6.0,-999.0,75,-99.99,,,0.00,weatherlink.com 1.10,2013-05-27 03:04:00,
2013-05-26 22:19:00,78.3,71.0,29.87,SSE,155,1.0,-999.0,77,-99.99,,,0.00,weatherlink.com 1.10,2013-05-27 03:19:00,
2013-05-26 22:34:00,77.8,70.0,29.87,SSE,159,1.0,-999.0,78,-99.99,,,0.00,weatherlink.com 1.10,2013-05-27 03:34:00,
2013-05-26 22:49:00,77.6,70.0,29.88,SSE,164,6.0,-999.0,78,-99.99,,,0.00,weatherlink.com 1.10,2013-05-27 03:49:00,
2013-05-26 23:04:00,77.3,70.0,29.88,SSE,152,0.0,-999.0,78,-99.99,,,0.00,weatherlink.com 1.10,2013-05-27 04:04:00,
2013-05-26 23:19:00,76.8,70.0,29.88,SSE,155,5.0,-999.0,80,-99.99,,,0.00,weatherlink.com 1.10,2013-05-27 04:19:00,
2013-05-26 23:34:00,76.3,70.0,29.87,SSE,155,8.0,-999.0,81,-99.99,,,0.00,weatherlink.com 1.10,2013-05-27 04:34:00,
2013-05-26 23:49:00,76.2,70.0,29.88,SSE,159,4.0,-999.0,81,-99.99,,,0.00,weatherlink.com 1.10,2013-05-27 04:49:00,